Time;durP1;ratioP1;P1;durP2;ratioP2;P2;SDS_P1;SDS_P2;PMS_P1;PMS_P2;Temp;Humidity;BMP_temperature;BMP_pressure;BME280_temperature;BME280_humidity;BME280_pressure;Samples;Min_cycle;Max_cycle;Signal;HPM_P1;HPM_P2
2023/08/15 00:01:17;;;;;;;3.05;2.22;;;21.70;99.90;;;;;;5013642;28;20026;-42
2023/08/15 00:03:46;;;;;;;3.92;2.20;;;21.70;99.90;;;;;;5013694;28;20483;-43
2023/08/15 00:06:12;;;;;;;2.63;2.08;;;21.70;99.90;;;;;;4995936;28;20438;-38
2023/08/15 00:08:37;;;;;;;2.60;2.03;;;21.70;99.90;;;;;;5013560;28;20052;-42
2023/08/15 00:11:03;;;;;;;2.45;1.90;;;21.70;99.90;;;;;;5013417;28;20487;-43
2023/08/15 00:13:29;;;;;;;2.90;2.20;;;21.70;99.90;;;;;;5013675;28;20088;-37
2023/08/15 00:15:54;;;;;;;3.67;2.17;;;21.70;99.90;;;;;;5013498;28;20026;-42
2023/08/15 00:18:20;;;;;;;2.65;2.40;;;21.60;99.90;;;;;;5013524;28;20507;-41
2023/08/15 00:20:47;;;;;;;4.90;2.33;;;21.60;99.90;;;;;;5012886;28;20038;-42
2023/08/15 00:23:13;;;;;;;7.43;2.55;;;21.60;99.90;;;;;;5013309;28;20083;-37
2023/08/15 00:25:38;;;;;;;4.13;2.20;;;21.60;99.90;;;;;;5013287;28;20030;-39
2023/08/15 00:28:04;;;;;;;3.33;2.10;;;21.70;99.90;;;;;;5013242;28;20152;-41
2023/08/15 00:30:32;;;;;;;4.53;2.00;;;21.60;99.90;;;;;;5011775;28;20108;-40
2023/08/15 00:32:58;;;;;;;2.17;1.98;;;21.60;99.90;;;;;;5013157;28;20021;-39
2023/08/15 00:35:24;;;;;;;3.25;2.22;;;21.60;99.90;;;;;;5012999;28;20372;-40
2023/08/15 00:37:49;;;;;;;2.97;2.08;;;21.60;99.90;;;;;;5013222;28;20053;-40
2023/08/15 00:40:15;;;;;;;2.22;1.90;;;21.60;99.90;;;;;;5012636;28;20048;-40
2023/08/15 00:42:40;;;;;;;3.17;2.10;;;21.60;99.90;;;;;;5012961;28;20152;-42
2023/08/15 00:45:07;;;;;;;4.97;2.33;;;21.60;99.90;;;;;;5013074;28;20065;-42
2023/08/15 00:47:33;;;;;;;4.40;2.35;;;21.60;99.90;;;;;;5012859;28;20109;-40
2023/08/15 00:50:01;;;;;;;3.78;2.20;;;21.60;99.90;;;;;;5012444;28;20026;-41
2023/08/15 00:52:26;;;;;;;2.85;2.30;;;21.60;99.90;;;;;;5012800;28;20767;-40
2023/08/15 00:54:54;;;;;;;2.35;2.00;;;21.60;99.90;;;;;;5012796;28;20109;-39
2023/08/15 00:57:20;;;;;;;3.25;2.17;;;21.60;99.90;;;;;;5012857;28;20026;-40
2023/08/15 00:59:46;;;;;;;3.10;2.10;;;21.60;99.90;;;;;;5012505;28;20034;-38
2023/08/15 01:02:12;;;;;;;2.42;2.08;;;21.60;99.90;;;;;;5012473;28;20038;-42
2023/08/15 01:04:41;;;;;;;3.25;2.15;;;21.60;99.90;;;;;;5012672;28;20391;-39
2023/08/15 01:07:09;;;;;;;4.28;2.30;;;21.60;99.90;;;;;;5012592;28;20018;-37
2023/08/15 01:09:34;;;;;;;3.15;2.10;;;21.60;99.90;;;;;;5012221;28;20088;-44
2023/08/15 01:12:21;;;;;;;3.45;2.30;;;21.60;99.90;;;;;;5012422;28;20426;-42
2023/08/15 01:15:12;;;;;;;4.35;2.30;;;21.60;99.90;;;;;;5012451;28;20050;-40
2023/08/15 01:17:59;;;;;;;2.15;1.90;;;21.60;99.90;;;;;;5012459;28;20026;-42
2023/08/15 01:20:30;;;;;;;4.90;2.45;;;21.60;99.90;;;;;;5011924;28;20124;-40
2023/08/15 01:23:00;;;;;;;2.50;2.20;;;21.60;99.90;;;;;;5012366;28;20101;-42
2023/08/15 01:25:27;;;;;;;5.40;2.38;;;21.60;99.90;;;;;;5012251;28;20068;-39
2023/08/15 01:27:52;;;;;;;3.00;2.28;;;21.60;99.90;;;;;;5012327;28;20033;-42
2023/08/15 01:30:22;;;;;;;3.20;2.40;;;21.60;99.90;;;;;;5012371;28;20395;-44
2023/08/15 01:33:36;;;;;;;3.50;2.38;;;21.60;99.90;;;;;;5012121;28;20080;-39
2023/08/15 01:36:08;;;;;;;3.35;2.47;;;21.60;99.90;;;;;;5012015;28;20079;-40
2023/08/15 01:38:47;;;;;;;4.13;2.28;;;21.60;99.90;;;;;;5012050;28;20018;-40
2023/08/15 01:41:18;;;;;;;5.13;2.17;;;21.60;99.90;;;;;;5011571;28;20109;-41
2023/08/15 01:43:44;;;;;;;2.28;2.00;;;21.60;99.90;;;;;;5012025;28;20026;-41
2023/08/15 01:46:11;;;;;;;3.38;2.05;;;21.60;99.90;;;;;;5011793;28;20502;-38
2023/08/15 01:48:41;;;;;;;3.55;2.63;;;21.60;99.90;;;;;;5011826;28;20079;-40
2023/08/15 01:51:07;;;;;;;4.05;2.10;;;21.60;99.90;;;;;;5011601;28;20504;-42
2023/08/15 01:53:37;;;;;;;4.47;2.53;;;21.60;99.90;;;;;;5011840;28;20058;-41
2023/08/15 01:56:03;;;;;;;3.30;2.33;;;21.60;99.90;;;;;;5012157;28;20029;-45
2023/08/15 01:58:29;;;;;;;3.05;2.53;;;21.60;99.90;;;;;;5011608;28;20025;-39
2023/08/15 02:00:54;;;;;;;2.70;2.13;;;21.60;99.90;;;;;;5011349;28;20101;-42
2023/08/15 02:03:20;;;;;;;3.35;2.47;;;21.60;99.90;;;;;;5011685;28;20372;-40
2023/08/15 02:05:46;;;;;;;3.65;2.13;;;21.60;99.90;;;;;;5011606;28;20052;-38
2023/08/15 02:08:11;;;;;;;4.20;2.33;;;21.60;99.90;;;;;;5011675;28;20105;-38
2023/08/15 02:10:37;;;;;;;4.93;2.58;;;21.60;99.90;;;;;;5011304;28;20025;-40
2023/08/15 02:13:02;;;;;;;3.70;2.42;;;21.60;99.90;;;;;;5011499;28;20061;-42
2023/08/15 02:15:28;;;;;;;3.88;2.42;;;21.60;99.90;;;;;;5011511;28;20586;-38
2023/08/15 02:17:54;;;;;;;2.92;2.40;;;21.60;99.90;;;;;;5011553;28;20129;-42
2023/08/15 02:20:19;;;;;;;3.08;2.25;;;21.60;99.90;;;;;;5011106;28;20324;-42
2023/08/15 02:22:45;;;;;;;6.28;2.40;;;21.50;99.90;;;;;;5011390;28;20018;-40
2023/08/15 02:25:11;;;;;;;3.83;2.47;;;21.60;99.90;;;;;;5011435;28;20089;-41
2023/08/15 02:27:36;;;;;;;4.32;2.30;;;21.60;99.90;;;;;;5011415;28;20497;-40
2023/08/15 02:30:04;;;;;;;3.08;2.25;;;21.50;99.90;;;;;;5010896;28;20046;-41
2023/08/15 02:32:30;;;;;;;6.03;2.53;;;21.50;99.90;;;;;;5011437;28;20053;-40
2023/08/15 02:34:56;;;;;;;4.82;2.60;;;21.60;99.90;;;;;;5011315;28;20104;-42
2023/08/15 02:37:21;;;;;;;3.50;2.40;;;21.50;99.90;;;;;;5011373;28;20127;-42
2023/08/15 02:39:47;;;;;;;2.72;2.20;;;21.60;99.90;;;;;;5011187;28;20022;-44
2023/08/15 02:42:12;;;;;;;3.08;2.15;;;21.50;99.90;;;;;;5011346;28;20038;-39
2023/08/15 02:44:38;;;;;;;2.88;2.00;;;21.60;99.90;;;;;;5011268;28;20030;-39
2023/08/15 02:47:04;;;;;;;4.38;2.63;;;21.60;99.90;;;;;;5011308;28;20509;-41
2023/08/15 02:49:30;;;;;;;3.38;2.30;;;21.60;99.90;;;;;;5011023;28;20034;-40
2023/08/15 02:51:56;;;;;;;4.55;2.25;;;21.60;99.90;;;;;;5011384;28;20025;-38
2023/08/15 02:54:21;;;;;;;5.65;2.50;;;21.60;99.90;;;;;;5013417;28;20030;-42
2023/08/15 02:56:47;;;;;;;2.55;2.22;;;21.50;99.90;;;;;;5014991;28;20022;-39
2023/08/15 02:59:13;;;;;;;4.28;2.55;;;21.60;99.90;;;;;;5014629;28;20476;-40
2023/08/15 03:01:38;;;;;;;6.68;2.80;;;21.50;99.90;;;;;;5014793;28;20026;-44
2023/08/15 03:04:06;;;;;;;4.65;2.50;;;21.50;99.90;;;;;;5014818;28;20053;-39
2023/08/15 03:06:31;;;;;;;2.65;2.20;;;21.50;99.90;;;;;;5014778;28;20105;-39
2023/08/15 03:08:57;;;;;;;3.95;2.30;;;21.50;99.90;;;;;;5014612;28;20109;-43
2023/08/15 03:11:23;;;;;;;3.75;2.20;;;21.50;99.90;;;;;;5014744;28;20033;-42
2023/08/15 03:13:48;;;;;;;2.78;2.40;;;21.50;99.90;;;;;;5014662;28;20038;-46
2023/08/15 03:16:14;;;;;;;5.18;2.50;;;21.50;99.90;;;;;;5014694;28;20026;-37
2023/08/15 03:18:39;;;;;;;4.30;2.40;;;21.50;99.90;;;;;;5014556;28;20497;-40
2023/08/15 03:21:06;;;;;;;3.22;2.63;;;21.50;99.90;;;;;;5014349;28;20438;-42
2023/08/15 03:23:32;;;;;;;2.53;2.17;;;21.50;99.90;;;;;;5014668;28;20029;-42
2023/08/15 03:26:02;;;;;;;3.55;2.28;;;21.50;99.90;;;;;;5014403;28;20030;-43
2023/08/15 03:28:28;;;;;;;2.75;2.55;;;21.50;99.90;;;;;;5014277;28;20029;-41
2023/08/15 03:30:54;;;;;;;2.92;2.17;;;21.50;99.90;;;;;;5013963;28;20034;-40
2023/08/15 03:33:20;;;;;;;4.57;2.45;;;21.50;99.90;;;;;;5014220;28;20065;-38
2023/08/15 03:35:50;;;;;;;3.72;2.42;;;21.50;99.90;;;;;;5014247;28;20050;-37
2023/08/15 03:38:21;;;;;;;3.83;2.33;;;21.50;99.90;;;;;;5014235;28;20022;-43
2023/08/15 03:40:49;;;;;;;4.47;2.17;;;21.50;99.90;;;;;;5013782;28;20034;-42
2023/08/15 03:43:15;;;;;;;4.38;2.38;;;21.50;99.90;;;;;;5014390;28;20026;-41
2023/08/15 03:45:41;;;;;;;5.43;2.33;;;21.50;99.90;;;;;;5014267;28;20022;-40
2023/08/15 03:48:08;;;;;;;3.20;2.55;;;21.50;99.90;;;;;;5014048;28;20475;-43
2023/08/15 03:50:38;;;;;;;4.72;3.03;;;21.50;99.90;;;;;;5013679;28;20030;-39
2023/08/15 03:53:04;;;;;;;3.10;2.15;;;21.50;99.90;;;;;;5013889;28;20053;-40
2023/08/15 03:55:31;;;;;;;3.22;2.40;;;21.50;99.90;;;;;;5013861;28;20036;-43
2023/08/15 03:57:56;;;;;;;2.50;2.30;;;21.50;99.90;;;;;;5013918;28;20034;-39
2023/08/15 04:00:23;;;;;;;3.38;2.15;;;21.50;99.90;;;;;;5013464;28;20062;-41
2023/08/15 04:02:49;;;;;;;3.95;2.20;;;21.50;99.90;;;;;;5013770;28;20026;-40
2023/08/15 04:05:15;;;;;;;3.22;2.28;;;21.50;99.90;;;;;;5013623;28;20032;-44
2023/08/15 04:07:41;;;;;;;3.67;2.45;;;21.50;99.90;;;;;;5013699;28;20476;-41
2023/08/15 04:10:07;;;;;;;3.13;2.42;;;21.50;99.90;;;;;;5013346;28;20049;-39
2023/08/15 04:12:34;;;;;;;2.80;2.33;;;21.50;99.90;;;;;;4995931;28;20026;-40
2023/08/15 04:15:00;;;;;;;3.08;2.20;;;21.50;99.90;;;;;;5013502;28;20030;-40
2023/08/15 04:17:26;;;;;;;3.63;2.42;;;21.50;99.90;;;;;;5013404;28;20067;-41
2023/08/15 04:19:52;;;;;;;2.42;2.22;;;21.50;99.90;;;;;;5013050;28;20021;-40
2023/08/15 04:22:18;;;;;;;2.55;2.35;;;21.50;99.90;;;;;;5013188;28;20041;-40
2023/08/15 04:24:43;;;;;;;3.83;2.40;;;21.50;99.90;;;;;;5013381;28;20022;-38
2023/08/15 04:27:09;;;;;;;4.80;2.45;;;21.50;99.90;;;;;;5013237;28;20483;-39
2023/08/15 04:29:34;;;;;;;2.40;2.20;;;21.50;99.90;;;;;;5012849;28;20168;-40
2023/08/15 04:32:00;;;;;;;4.68;2.72;;;21.50;99.90;;;;;;5013185;28;20146;-40
2023/08/15 04:34:26;;;;;;;2.72;2.38;;;21.50;99.90;;;;;;5013271;28;20095;-41
2023/08/15 04:36:51;;;;;;;3.00;2.35;;;21.50;99.90;;;;;;5013046;28;20033;-40
2023/08/15 04:39:23;;;;;;;3.13;2.63;;;21.50;99.90;;;;;;5012835;28;20483;-38
2023/08/15 04:41:49;;;;;;;3.08;2.65;;;21.50;99.90;;;;;;5013088;28;20056;-43
2023/08/15 04:44:15;;;;;;;4.18;2.35;;;21.50;99.90;;;;;;5013083;28;20073;-39
2023/08/15 04:46:41;;;;;;;2.95;2.47;;;21.50;99.90;;;;;;5012864;28;20058;-41
2023/08/15 04:49:07;;;;;;;4.85;2.55;;;21.50;99.90;;;;;;5012819;28;20034;-43
2023/08/15 04:51:32;;;;;;;4.85;2.53;;;21.50;99.90;;;;;;5012675;28;20030;-40
2023/08/15 04:53:58;;;;;;;3.90;2.85;;;21.50;99.90;;;;;;5012978;28;20022;-38
2023/08/15 04:56:24;;;;;;;3.17;2.40;;;21.50;99.90;;;;;;5012821;28;20471;-38
2023/08/15 04:58:49;;;;;;;2.83;2.15;;;21.40;99.90;;;;;;5012617;28;20038;-42
2023/08/15 05:01:15;;;;;;;5.72;2.63;;;21.50;99.90;;;;;;5012620;28;20387;-38
2023/08/15 05:03:41;;;;;;;5.65;3.38;;;21.50;99.90;;;;;;5012634;28;20029;-40
2023/08/15 05:06:07;;;;;;;4.57;2.60;;;21.50;99.90;;;;;;5012564;28;20026;-42
2023/08/15 05:08:32;;;;;;;4.18;2.28;;;21.40;99.90;;;;;;5012644;28;20029;-40
2023/08/15 05:11:01;;;;;;;3.30;2.35;;;21.50;99.90;;;;;;5012219;28;20029;-41
2023/08/15 05:13:27;;;;;;;3.20;2.47;;;21.40;99.90;;;;;;5012439;28;20033;-39
2023/08/15 05:15:53;;;;;;;3.90;2.45;;;21.50;99.90;;;;;;5012092;28;20025;-39
2023/08/15 05:18:20;;;;;;;3.17;2.45;;;21.50;99.90;;;;;;5012287;28;20110;-42
2023/08/15 05:20:47;;;;;;;3.03;2.47;;;21.50;99.90;;;;;;5011918;28;20072;-41
2023/08/15 05:23:14;;;;;;;3.50;2.72;;;21.40;99.90;;;;;;5012283;28;20037;-42
2023/08/15 05:25:41;;;;;;;4.57;2.60;;;21.40;99.90;;;;;;5012203;28;20034;-45
2023/08/15 05:28:07;;;;;;;4.10;2.53;;;21.40;99.90;;;;;;5012174;28;20064;-41
2023/08/15 05:30:33;;;;;;;3.30;2.40;;;21.50;99.90;;;;;;5011990;28;20061;-40
2023/08/15 05:32:59;;;;;;;4.07;2.38;;;21.50;99.90;;;;;;5012304;28;20037;-40
2023/08/15 05:35:25;;;;;;;4.50;2.50;;;21.50;99.90;;;;;;5012137;28;20527;-41
2023/08/15 05:37:50;;;;;;;5.13;2.70;;;21.40;99.90;;;;;;4994450;28;20133;-42
2023/08/15 05:40:17;;;;;;;2.83;2.40;;;21.40;99.90;;;;;;5011709;28;20022;-42
2023/08/15 05:42:42;;;;;;;3.58;2.40;;;21.50;99.90;;;;;;4994336;28;20081;-40
2023/08/15 05:45:09;;;;;;;3.85;2.22;;;21.40;99.90;;;;;;5012061;28;20024;-42
2023/08/15 05:47:35;;;;;;;4.20;2.50;;;21.40;99.90;;;;;;5011974;28;20044;-38
2023/08/15 05:50:00;;;;;;;2.83;2.30;;;21.40;99.90;;;;;;5011453;28;20030;-38
2023/08/15 05:52:26;;;;;;;2.67;2.30;;;21.40;99.90;;;;;;5011898;28;20030;-42
2023/08/15 05:54:53;;;;;;;3.25;2.22;;;21.40;99.90;;;;;;5011914;28;20040;-39
2023/08/15 05:57:19;;;;;;;3.53;2.50;;;21.40;99.90;;;;;;5012136;28;20034;-38
2023/08/15 05:59:45;;;;;;;3.05;2.58;;;21.40;99.90;;;;;;5011592;28;20161;-39
2023/08/15 06:02:11;;;;;;;2.40;2.20;;;21.40;99.90;;;;;;5011636;28;20045;-40
2023/08/15 06:04:37;;;;;;;2.85;2.53;;;21.40;99.90;;;;;;4993885;28;20522;-42
2023/08/15 06:07:03;;;;;;;4.35;2.40;;;21.40;99.90;;;;;;5011999;28;20022;-40
2023/08/15 06:09:29;;;;;;;3.15;2.45;;;21.40;99.90;;;;;;5011338;28;20014;-43
2023/08/15 06:11:55;;;;;;;3.13;2.30;;;21.40;99.90;;;;;;5011618;28;20431;-43
2023/08/15 06:14:20;;;;;;;3.58;2.50;;;21.40;99.90;;;;;;5011932;28;20450;-40
2023/08/15 06:16:47;;;;;;;2.38;2.10;;;21.40;99.90;;;;;;5011688;28;20029;-42
2023/08/15 06:19:13;;;;;;;2.88;2.20;;;21.40;99.90;;;;;;5011139;28;20032;-41
2023/08/15 06:21:41;;;;;;;4.78;2.50;;;21.40;99.90;;;;;;4993753;28;20033;-43
2023/08/15 06:24:11;;;;;;;2.40;2.20;;;21.40;99.90;;;;;;5011491;28;20141;-42
2023/08/15 06:26:37;;;;;;;5.38;2.40;;;21.40;99.90;;;;;;4994002;28;20033;-44
2023/08/15 06:29:06;;;;;;;3.53;2.47;;;21.40;99.90;;;;;;5012837;28;20307;-42
2023/08/15 06:31:33;;;;;;;3.95;2.33;;;21.40;99.90;;;;;;5015498;28;20065;-40
2023/08/15 06:34:00;;;;;;;4.90;2.40;;;21.40;99.90;;;;;;5016145;28;20099;-42
2023/08/15 06:36:26;;;;;;;2.45;2.08;;;21.40;99.90;;;;;;5015627;28;20500;-42
2023/08/15 06:38:51;;;;;;;3.63;2.47;;;21.40;99.90;;;;;;5015309;28;20048;-40
2023/08/15 06:41:17;;;;;;;4.15;2.17;;;21.40;99.90;;;;;;5015633;28;20392;-39
2023/08/15 06:43:46;;;;;;;2.60;2.40;;;21.40;99.90;;;;;;5015220;28;20030;-41
2023/08/15 06:46:12;;;;;;;3.60;2.40;;;21.40;99.90;;;;;;5015107;28;20029;-42
2023/08/15 06:48:38;;;;;;;2.58;2.00;;;21.40;99.90;;;;;;5015214;28;20026;-43
2023/08/15 06:51:03;;;;;;;3.35;2.25;;;21.40;99.90;;;;;;5014847;28;20030;-43
2023/08/15 06:53:30;;;;;;;3.00;2.30;;;21.40;99.90;;;;;;5015190;28;20032;-42
2023/08/15 06:55:56;;;;;;;2.22;2.03;;;21.40;99.90;;;;;;5014923;28;20029;-43
2023/08/15 06:58:22;;;;;;;3.22;2.10;;;21.40;99.90;;;;;;5014904;28;20026;-41
2023/08/15 07:00:48;;;;;;;2.40;2.20;;;21.40;99.90;;;;;;5014500;28;20030;-39
2023/08/15 07:03:18;;;;;;;3.45;2.13;;;21.40;99.90;;;;;;5014885;28;20022;-38
2023/08/15 07:05:44;;;;;;;2.40;2.15;;;21.40;99.90;;;;;;5015071;28;20011;-40
2023/08/15 07:08:10;;;;;;;3.20;2.30;;;21.40;99.90;;;;;;5014768;28;20053;-44
2023/08/15 07:10:36;;;;;;;2.13;1.92;;;21.40;99.90;;;;;;5014424;28;20057;-40
2023/08/15 07:13:02;;;;;;;2.42;2.17;;;21.40;99.90;;;;;;5014623;28;20018;-42
2023/08/15 07:15:28;;;;;;;2.40;1.83;;;21.40;99.90;;;;;;5014583;28;20029;-38
2023/08/15 07:17:54;;;;;;;4.55;2.10;;;21.40;99.90;;;;;;5014588;28;20028;-42
2023/08/15 07:20:20;;;;;;;2.15;1.95;;;21.40;99.90;;;;;;5014238;28;20026;-40
2023/08/15 07:22:45;;;;;;;2.85;2.38;;;21.40;99.90;;;;;;5014434;28;20025;-42
2023/08/15 07:25:12;;;;;;;2.63;2.20;;;21.40;99.90;;;;;;5014522;28;20387;-42
2023/08/15 07:27:38;;;;;;;2.42;2.22;;;21.40;99.90;;;;;;5014338;28;20025;-37
2023/08/15 07:30:07;;;;;;;5.97;3.53;;;21.40;99.90;;;;;;5014391;28;20030;-40
2023/08/15 07:32:36;;;;;;;4.53;3.30;;;21.50;99.90;;;;;;4996609;28;20030;-41
2023/08/15 07:35:03;;;;;;;7.78;3.25;;;21.50;99.90;;;;;;4996658;28;20033;-40
2023/08/15 07:37:30;;;;;;;6.30;3.53;;;21.50;99.90;;;;;;5014249;28;20026;-39
2023/08/15 07:39:58;;;;;;;6.03;3.25;;;21.50;99.90;;;;;;5013398;28;20076;-41
2023/08/15 07:42:25;;;;;;;4.90;2.95;;;21.50;99.90;;;;;;5013910;28;20022;-41
2023/08/15 07:44:50;;;;;;;6.93;3.40;;;21.50;99.90;;;;;;5014167;28;20395;-42
2023/08/15 07:47:16;;;;;;;6.18;3.40;;;21.50;99.90;;;;;;5014321;28;20022;-41
2023/08/15 07:49:41;;;;;;;7.10;3.60;;;21.50;99.90;;;;;;5013839;28;20537;-40
2023/08/15 07:52:07;;;;;;;4.28;3.45;;;21.50;99.90;;;;;;5013949;28;20022;-39
2023/08/15 07:54:32;;;;;;;4.65;3.13;;;21.50;99.90;;;;;;5014000;28;20025;-44
2023/08/15 07:56:58;;;;;;;4.13;2.90;;;21.50;99.90;;;;;;5013726;28;20388;-41
2023/08/15 07:59:29;;;;;;;4.82;2.97;;;21.50;99.90;;;;;;5014004;28;20050;-38
2023/08/15 08:01:55;;;;;;;3.78;2.97;;;21.50;99.90;;;;;;5014482;28;20057;-41
2023/08/15 08:04:20;;;;;;;4.10;2.88;;;21.50;99.90;;;;;;5013752;28;20525;-40
2023/08/15 08:06:48;;;;;;;6.97;3.22;;;21.50;99.90;;;;;;5013752;28;20037;-42
2023/08/15 08:09:14;;;;;;;9.55;3.03;;;21.50;99.90;;;;;;5013365;28;20018;-42
2023/08/15 08:11:39;;;;;;;4.93;2.95;;;21.50;99.90;;;;;;5013464;28;20037;-40
2023/08/15 08:14:05;;;;;;;6.05;3.00;;;21.50;99.90;;;;;;5013541;28;20028;-38
2023/08/15 08:16:31;;;;;;;3.90;2.90;;;21.50;99.90;;;;;;5013509;28;20029;-40
2023/08/15 08:18:56;;;;;;;4.15;3.05;;;21.50;99.90;;;;;;5013279;28;20049;-41
2023/08/15 08:21:22;;;;;;;4.40;3.03;;;21.60;99.90;;;;;;5013245;28;20040;-40
2023/08/15 08:23:48;;;;;;;9.25;5.22;;;21.60;99.90;;;;;;5013353;28;20036;-41
2023/08/15 08:26:13;;;;;;;9.38;4.88;;;21.60;99.90;;;;;;5013626;28;20028;-44
2023/08/15 08:28:39;;;;;;;8.27;4.47;;;21.70;99.90;;;;;;5013402;28;20050;-40
2023/08/15 08:31:05;;;;;;;6.05;4.63;;;21.70;99.90;;;;;;5012828;28;20044;-43
2023/08/15 08:33:30;;;;;;;9.90;4.50;;;21.70;99.90;;;;;;5013423;28;20029;-42
2023/08/15 08:35:56;;;;;;;7.72;5.07;;;21.70;99.90;;;;;;5014049;28;20034;-44
2023/08/15 08:38:22;;;;;;;7.85;4.88;;;21.70;99.90;;;;;;5013072;28;20024;-38
2023/08/15 08:40:47;;;;;;;6.68;4.10;;;21.70;99.90;;;;;;5012534;28;20025;-44
2023/08/15 08:43:18;;;;;;;9.63;4.57;;;21.70;99.90;;;;;;5013017;28;20025;-42
2023/08/15 08:45:50;;;;;;;8.52;4.97;;;21.70;99.90;;;;;;5013001;28;20022;-42
2023/08/15 08:48:17;;;;;;;6.28;4.15;;;21.70;99.90;;;;;;5013062;28;20034;-42
2023/08/15 08:50:47;;;;;;;7.00;4.63;;;21.70;99.90;;;;;;5011932;28;20086;-41
2023/08/15 08:53:13;;;;;;;5.90;4.30;;;21.80;99.90;;;;;;5012471;28;20022;-41
2023/08/15 08:55:40;;;;;;;5.78;4.05;;;21.70;99.90;;;;;;5012999;28;20121;-43
2023/08/15 08:58:09;;;;;;;5.53;3.88;;;21.80;99.90;;;;;;5012757;28;20018;-43
2023/08/15 09:00:35;;;;;;;5.43;3.95;;;21.80;99.90;;;;;;5012359;28;20022;-40
2023/08/15 09:03:00;;;;;;;6.95;4.50;;;21.80;99.90;;;;;;5012711;28;20026;-48
2023/08/15 09:05:27;;;;;;;6.95;3.90;;;21.80;99.90;;;;;;5012675;28;20076;-41
2023/08/15 09:07:53;;;;;;;6.55;4.13;;;21.80;99.90;;;;;;5012490;28;20054;-42
2023/08/15 09:10:21;;;;;;;5.78;4.10;;;21.80;99.90;;;;;;5012167;28;20432;-42
2023/08/15 09:12:47;;;;;;;7.13;4.22;;;21.80;99.90;;;;;;5012661;28;20038;-45
2023/08/15 09:15:13;;;;;;;5.10;4.05;;;21.80;99.90;;;;;;5012455;28;20030;-39
2023/08/15 09:17:39;;;;;;;5.28;4.28;;;21.80;99.90;;;;;;5012370;28;20053;-42
2023/08/15 09:20:12;;;;;;;7.18;4.10;;;21.80;99.90;;;;;;5012328;28;20026;-45
2023/08/15 09:22:46;;;;;;;4.10;3.70;;;21.80;99.90;;;;;;5012301;28;20491;-40
2023/08/15 09:25:17;;;;;;;7.72;3.83;;;21.80;99.90;;;;;;4994693;28;20403;-44
2023/08/15 09:27:44;;;;;;;6.80;3.95;;;21.80;99.90;;;;;;5012258;28;20029;-40
2023/08/15 09:30:12;;;;;;;6.05;3.70;;;21.80;99.90;;;;;;5011834;28;20029;-43
2023/08/15 09:32:42;;;;;;;4.75;3.63;;;21.80;99.90;;;;;;5012230;28;20515;-42
2023/08/15 09:35:09;;;;;;;6.20;4.10;;;21.80;99.90;;;;;;5012682;28;20091;-44
2023/08/15 09:37:56;;;;;;;4.60;3.83;;;21.80;99.90;;;;;;5012583;28;20053;-40
2023/08/15 09:40:25;;;;;;;4.90;3.90;;;21.90;99.90;;;;;;5011998;28;20046;-40
2023/08/15 09:42:52;;;;;;;6.32;3.65;;;21.90;99.90;;;;;;5012015;28;20026;-41
2023/08/15 09:45:18;;;;;;;5.35;3.50;;;21.90;99.90;;;;;;5011824;28;20029;-39
2023/08/15 09:47:45;;;;;;;8.43;3.90;;;22.00;99.90;;;;;;5011874;28;20455;-37
2023/08/15 09:50:13;;;;;;;4.18;3.50;;;22.00;99.90;;;;;;5011629;28;20017;-44
2023/08/15 09:52:43;;;;;;;5.65;3.33;;;22.00;99.90;;;;;;5011851;28;20072;-40
2023/08/15 09:55:10;;;;;;;4.55;3.83;;;22.10;99.90;;;;;;4994080;28;20077;-37
2023/08/15 09:57:40;;;;;;;5.78;3.38;;;22.10;99.90;;;;;;5011777;28;20033;-36
2023/08/15 10:00:11;;;;;;;7.97;2.25;;;22.10;99.90;;;;;;5011361;28;20026;-41
2023/08/15 10:02:52;;;;;;;4.07;2.00;;;22.10;99.90;;;;;;5011416;28;20026;-37
2023/08/15 10:05:21;;;;;;;4.32;2.17;;;22.20;99.90;;;;;;5011814;28;20113;-40
2023/08/15 10:07:48;;;;;;;5.20;2.08;;;22.20;99.90;;;;;;5011699;28;20569;-40
2023/08/15 10:10:15;;;;;;;4.93;2.10;;;22.20;99.90;;;;;;4993620;28;20516;-36
2023/08/15 10:12:42;;;;;;;5.65;2.38;;;22.20;99.90;;;;;;5011807;28;20026;-38
2023/08/15 10:15:10;;;;;;;3.55;2.00;;;22.30;99.90;;;;;;5011649;28;20026;-39
2023/08/15 10:17:36;;;;;;;4.05;2.30;;;22.30;99.90;;;;;;5011604;28;20030;-39
2023/08/15 10:20:10;;;;;;;4.85;2.50;;;22.30;99.90;;;;;;5011428;28;20372;-40
2023/08/15 10:22:36;;;;;;;;;;;22.30;99.90;;;;;;5011918;28;20398;-39
2023/08/15 10:25:22;;;;;;;6.55;2.10;;;22.30;99.90;;;;;;5011486;28;19999;-40
2023/08/15 10:27:54;;;;;;;3.65;2.10;;;22.30;99.90;;;;;;4997696;28;20041;-41
2023/08/15 10:30:33;;;;;;;4.47;2.03;;;22.30;99.90;;;;;;5011403;28;20061;-37
2023/08/15 10:33:01;;;;;;;5.38;2.38;;;22.30;99.90;;;;;;5011452;28;20084;-40
2023/08/15 10:35:27;;;;;;;4.88;2.10;;;22.30;99.90;;;;;;5011332;28;20495;-41
2023/08/15 10:37:56;;;;;;;4.55;1.98;;;22.30;99.90;;;;;;5011352;28;20041;-43
2023/08/15 10:40:37;;;;;;;3.72;2.10;;;22.30;99.90;;;;;;5011179;28;20360;-37
2023/08/15 10:43:02;;;;;;;3.38;1.80;;;22.40;99.90;;;;;;5011287;28;20112;-41
2023/08/15 10:45:41;;;;;;;4.13;1.95;;;22.30;99.90;;;;;;5011273;28;20145;-41
2023/08/15 10:48:09;;;;;;;2.80;1.95;;;22.40;99.90;;;;;;5011269;28;20101;-44
2023/08/15 10:50:36;;;;;;;4.55;1.92;;;22.40;99.90;;;;;;5010939;28;20048;-39
2023/08/15 10:53:05;;;;;;;3.63;2.55;;;22.40;99.90;;;;;;5011167;28;20041;-37
2023/08/15 10:55:37;;;;;;;5.20;2.03;;;22.40;99.90;;;;;;5011279;28;20077;-40
2023/08/15 10:58:10;;;;;;;4.43;1.90;;;22.40;99.90;;;;;;5011091;28;20071;-40
2023/08/15 11:00:38;;;;;;;2.50;2.00;;;22.40;99.90;;;;;;5010919;28;20037;-40
2023/08/15 11:03:06;;;;;;;4.53;1.88;;;22.50;99.90;;;;;;5011097;28;20026;-39
2023/08/15 11:05:32;;;;;;;5.70;1.98;;;22.50;99.90;;;;;;5011139;28;20099;-38
2023/08/15 11:08:29;;;;;;;4.63;2.03;;;22.40;99.90;;;;;;5011076;28;20066;-38
2023/08/15 11:10:55;;;;;;;4.63;2.00;;;22.50;99.90;;;;;;4967207;28;20034;-38
2023/08/15 11:13:21;;;;;;;2.50;1.92;;;22.50;99.90;;;;;;5011085;28;20030;-43
2023/08/15 11:15:46;;;;;;;3.20;1.75;;;22.50;99.90;;;;;;5013713;28;20030;-42
2023/08/15 11:18:21;;;;;;;3.72;1.95;;;22.50;99.90;;;;;;5014671;28;20022;-38
2023/08/15 11:20:47;;;;;;;2.60;1.75;;;22.50;99.90;;;;;;5014354;28;20061;-43
2023/08/15 11:23:14;;;;;;;4.55;1.88;;;22.50;99.90;;;;;;5014380;28;20029;-41
2023/08/15 11:25:40;;;;;;;2.40;1.83;;;22.50;99.90;;;;;;5014692;28;20029;-40
2023/08/15 11:28:06;;;;;;;3.03;1.98;;;22.50;99.90;;;;;;5014608;28;20018;-43
2023/08/15 11:30:31;;;;;;;2.40;1.80;;;22.50;99.90;;;;;;5014144;28;20128;-41
2023/08/15 11:32:57;;;;;;;3.33;2.00;;;22.50;99.90;;;;;;5014459;28;20345;-36
2023/08/15 11:35:23;;;;;;;2.53;1.88;;;22.50;99.90;;;;;;5014327;28;20399;-42
2023/08/15 11:37:49;;;;;;;3.53;1.98;;;22.50;99.90;;;;;;5014106;28;20025;-47
2023/08/15 11:40:14;;;;;;;4.28;2.08;;;22.60;99.90;;;;;;5013912;28;20034;-40
2023/08/15 11:42:40;;;;;;;2.50;1.73;;;22.50;99.90;;;;;;5014131;28;20030;-36
2023/08/15 11:45:06;;;;;;;2.80;1.83;;;22.60;99.90;;;;;;5014262;28;20022;-41
2023/08/15 11:47:32;;;;;;;5.00;2.15;;;22.60;99.90;;;;;;5014177;28;20018;-44
2023/08/15 11:49:57;;;;;;;2.47;1.63;;;22.60;99.90;;;;;;5013787;28;20045;-41
2023/08/15 11:52:23;;;;;;;2.17;1.40;;;22.60;99.90;;;;;;5014311;28;20022;-38
2023/08/15 11:54:49;;;;;;;4.50;2.00;;;22.60;99.90;;;;;;5013946;28;20040;-41
2023/08/15 11:57:32;;;;;;;3.50;1.52;;;22.60;99.90;;;;;;5013922;28;20511;-41
2023/08/15 12:00:00;;;;;;;2.63;1.83;;;22.60;99.90;;;;;;5013697;28;20153;-40
2023/08/15 12:02:26;;;;;;;2.15;1.70;;;22.60;99.90;;;;;;5013706;28;20026;-40
2023/08/15 12:04:52;;;;;;;3.25;1.85;;;22.60;99.90;;;;;;5013674;28;20030;-38
2023/08/15 12:07:19;;;;;;;2.47;1.85;;;22.60;99.90;;;;;;5013771;28;20383;-41
2023/08/15 12:09:45;;;;;;;3.13;1.92;;;22.60;99.90;;;;;;4995812;28;20022;-40
2023/08/15 12:12:19;;;;;;;1.90;1.70;;;22.60;99.90;;;;;;4996080;28;20057;-41
2023/08/15 12:14:44;;;;;;;3.05;1.73;;;22.60;99.90;;;;;;5013661;28;20451;-41
2023/08/15 12:17:10;;;;;;;3.13;1.80;;;22.60;99.90;;;;;;5013592;28;20061;-40
2023/08/15 12:19:36;;;;;;;3.80;1.98;;;22.60;99.90;;;;;;5013135;28;20487;-41
2023/08/15 12:22:02;;;;;;;6.05;1.98;;;22.70;99.90;;;;;;5013330;28;20040;-39
2023/08/15 12:24:28;;;;;;;5.05;2.20;;;22.70;99.90;;;;;;5013391;28;20108;-39
2023/08/15 12:26:54;;;;;;;3.92;2.05;;;22.70;99.90;;;;;;5013279;28;20487;-41
2023/08/15 12:29:19;;;;;;;4.70;2.30;;;22.70;99.90;;;;;;5012963;28;20092;-40
2023/08/15 12:31:45;;;;;;;3.83;2.10;;;22.70;99.90;;;;;;5013341;28;20518;-41
2023/08/15 12:34:11;;;;;;;5.60;2.05;;;22.70;99.90;;;;;;5013174;28;20137;-41
2023/08/15 12:36:37;;;;;;;3.10;1.90;;;22.70;99.90;;;;;;5013654;28;20026;-41
2023/08/15 12:39:03;;;;;;;3.40;1.88;;;22.70;99.90;;;;;;5013237;28;20030;-39
2023/08/15 12:41:28;;;;;;;4.32;1.88;;;22.70;99.90;;;;;;5013073;28;20542;-43
2023/08/15 12:43:54;;;;;;;4.25;2.20;;;22.60;99.90;;;;;;5013127;28;20049;-38
2023/08/15 12:46:20;;;;;;;4.97;2.20;;;22.70;99.90;;;;;;5013539;28;20141;-43
2023/08/15 12:48:47;;;;;;;4.07;2.13;;;22.70;99.90;;;;;;5014389;28;20165;-45